Time;durP1;ratioP1;P1;durP2;ratioP2;P2;SDS_P1;SDS_P2;PMS_P1;PMS_P2;Temp;Humidity;BMP_temperature;BMP_pressure;BME280_temperature;BME280_humidity;BME280_pressure;Samples;Min_cycle;Max_cycle;Signal;HPM_P1;HPM_P2
2023/10/27 00:01:29;;;;;;;1.60;1.50;;;;;;;;;;5044966;28;20110;-59
2023/10/27 00:03:58;;;;;;;1.70;1.60;;;;;;;;;;5043975;28;20087;-59
2023/10/27 00:06:27;;;;;;;2.25;1.80;;;;;;;;;;5043939;28;20685;-59
2023/10/27 00:08:56;;;;;;;1.67;1.58;;;;;;;;;;5041819;28;20140;-59
2023/10/27 00:11:25;;;;;;;1.85;1.75;;;;;;;;;;5040203;28;20073;-59
2023/10/27 00:13:53;;;;;;;1.70;1.60;;;;;;;;;;5040646;28;20041;-59
2023/10/27 00:16:22;;;;;;;1.85;1.70;;;;;;;;;;5043363;28;20073;-59
2023/10/27 00:18:52;;;;;;;1.55;1.55;;;;;;;;;;5042373;28;20481;-59
2023/10/27 00:21:20;;;;;;;1.70;1.60;;;;;;;;;;5045655;28;20505;-59
2023/10/27 00:23:49;;;;;;;1.55;1.50;;;;;;;;;;5043246;28;20545;-59
2023/10/27 00:26:17;;;;;;;1.60;1.50;;;;;;;;;;5038734;28;20361;-59
2023/10/27 00:28:47;;;;;;;1.70;1.60;;;;;;;;;;5038479;28;20037;-59
2023/10/27 00:31:16;;;;;;;1.77;1.67;;;;;;;;;;5040739;28;20037;-59
2023/10/27 00:33:44;;;;;;;1.48;1.48;;;;;;;;;;5042064;28;20052;-59
2023/10/27 00:36:14;;;;;;;1.80;1.70;;;;;;;;;;5041938;28;20069;-59
2023/10/27 00:38:42;;;;;;;1.60;1.50;;;;;;;;;;5043001;28;20106;-59
2023/10/27 00:41:11;;;;;;;2.92;1.73;;;;;;;;;;5042604;28;20061;-59
2023/10/27 00:43:39;;;;;;;1.60;1.50;;;;;;;;;;5043832;28;20092;-60
2023/10/27 00:46:08;;;;;;;1.70;1.60;;;;;;;;;;5044085;28;20361;-60
2023/10/27 00:48:37;;;;;;;1.92;1.70;;;;;;;;;;5043759;28;20041;-59
2023/10/27 00:51:06;;;;;;;1.50;1.50;;;;;;;;;;5042087;28;20049;-59
2023/10/27 00:53:36;;;;;;;1.50;1.40;;;;;;;;;;5045833;28;20040;-59
2023/10/27 00:56:05;;;;;;;2.40;1.80;;;;;;;;;;5043216;28;20064;-59
2023/10/27 00:58:34;;;;;;;1.73;1.63;;;;;;;;;;5041490;28;20053;-59
2023/10/27 01:01:03;;;;;;;1.88;1.77;;;;;;;;;;5041297;28;20049;-59
2023/10/27 01:03:31;;;;;;;1.70;1.60;;;;;;;;;;5043943;28;20536;-60
2023/10/27 01:06:00;;;;;;;1.73;1.63;;;;;;;;;;5043933;28;20125;-59
2023/10/27 01:08:28;;;;;;;3.08;1.90;;;;;;;;;;5044975;28;20436;-60
2023/10/27 01:10:58;;;;;;;1.80;1.67;;;;;;;;;;5039331;28;20162;-60
2023/10/27 01:13:26;;;;;;;3.55;2.22;;;;;;;;;;5040176;28;20110;-60
2023/10/27 01:15:55;;;;;;;1.60;1.50;;;;;;;;;;5042848;28;20048;-60
2023/10/27 01:18:23;;;;;;;1.60;1.50;;;;;;;;;;5040642;28;20065;-59
2023/10/27 01:20:51;;;;;;;1.67;1.58;;;;;;;;;;5041172;28;20041;-60
2023/10/27 01:23:21;;;;;;;1.60;1.50;;;;;;;;;;5040621;28;20059;-60
2023/10/27 01:25:50;;;;;;;1.83;1.73;;;;;;;;;;5042410;28;20044;-60
2023/10/27 01:28:18;;;;;;;1.70;1.60;;;;;;;;;;5041777;28;20115;-60
2023/10/27 01:30:47;;;;;;;7.13;1.90;;;;;;;;;;5043268;28;20130;-61
2023/10/27 01:33:15;;;;;;;1.83;1.67;;;;;;;;;;5043723;28;20053;-60
2023/10/27 01:35:43;;;;;;;1.90;1.75;;;;;;;;;;5042496;28;20142;-61
2023/10/27 01:38:12;;;;;;;1.70;1.60;;;;;;;;;;5040667;28;20041;-61
2023/10/27 01:40:42;;;;;;;1.75;1.65;;;;;;;;;;5043275;28;20140;-61
2023/10/27 01:43:10;;;;;;;2.03;1.65;;;;;;;;;;5042854;28;20037;-61
2023/10/27 01:45:38;;;;;;;1.80;1.70;;;;;;;;;;5041384;28;20071;-61
2023/10/27 01:48:07;;;;;;;1.80;1.70;;;;;;;;;;5042876;28;20144;-61
2023/10/27 01:50:36;;;;;;;1.50;1.50;;;;;;;;;;5039402;28;20124;-60
2023/10/27 01:53:05;;;;;;;1.60;1.60;;;;;;;;;;5042534;28;20072;-60
2023/10/27 01:55:33;;;;;;;1.60;1.50;;;;;;;;;;5043055;28;20443;-61
2023/10/27 01:58:03;;;;;;;1.67;1.60;;;;;;;;;;5041826;28;20045;-61
2023/10/27 02:00:31;;;;;;;1.92;1.83;;;;;;;;;;5042093;28;20045;-60
2023/10/27 02:03:00;;;;;;;1.88;1.77;;;;;;;;;;5042766;28;20048;-60
2023/10/27 02:05:28;;;;;;;1.65;1.65;;;;;;;;;;5043440;28;20041;-60
2023/10/27 02:07:58;;;;;;;1.52;1.42;;;;;;;;;;5037186;28;20076;-61
2023/10/27 02:10:26;;;;;;;1.95;1.85;;;;;;;;;;5041729;28;20051;-61
2023/10/27 02:12:55;;;;;;;1.70;1.60;;;;;;;;;;5044013;28;20045;-62
2023/10/27 02:15:25;;;;;;;1.75;1.65;;;;;;;;;;5045610;28;20049;-60
2023/10/27 02:17:53;;;;;;;1.75;1.65;;;;;;;;;;5046347;28;20448;-61
2023/10/27 02:20:21;;;;;;;1.95;1.85;;;;;;;;;;5047307;28;20514;-59
2023/10/27 02:22:50;;;;;;;1.98;1.80;;;;;;;;;;5043082;28;20064;-59
2023/10/27 02:25:18;;;;;;;1.80;1.70;;;;;;;;;;5044721;28;20049;-59
2023/10/27 02:27:47;;;;;;;1.77;1.60;;;;;;;;;;5045187;28;20140;-59
2023/10/27 02:30:15;;;;;;;1.48;1.40;;;;;;;;;;5045857;28;20072;-59
2023/10/27 02:32:45;;;;;;;1.42;1.42;;;;;;;;;;5044907;28;20063;-59
2023/10/27 02:35:13;;;;;;;1.80;1.70;;;;;;;;;;5045431;28;20056;-59
2023/10/27 02:37:42;;;;;;;3.15;1.75;;;;;;;;;;5042872;28;20041;-59
2023/10/27 02:40:10;;;;;;;1.80;1.70;;;;;;;;;;5046179;28;20048;-59
2023/10/27 02:42:39;;;;;;;1.77;1.67;;;;;;;;;;5044952;28;20052;-59
2023/10/27 02:45:08;;;;;;;1.98;1.83;;;;;;;;;;5044021;28;20052;-59
2023/10/27 02:47:37;;;;;;;1.85;1.75;;;;;;;;;;5044823;28;20041;-59
2023/10/27 02:50:07;;;;;;;2.10;1.80;;;;;;;;;;5040175;28;20416;-59
2023/10/27 02:52:35;;;;;;;2.00;1.75;;;;;;;;;;5046572;28;20502;-59
2023/10/27 02:55:03;;;;;;;2.25;1.95;;;;;;;;;;5044945;28;20129;-59
2023/10/27 02:57:32;;;;;;;2.03;1.90;;;;;;;;;;5043237;28;20128;-59
2023/10/27 03:00:00;;;;;;;1.98;1.88;;;;;;;;;;5043879;28;20084;-59
2023/10/27 03:02:29;;;;;;;1.80;1.70;;;;;;;;;;5042794;28;20068;-59
2023/10/27 03:04:57;;;;;;;1.98;1.83;;;;;;;;;;5045862;28;20055;-59
2023/10/27 03:07:27;;;;;;;2.20;2.00;;;;;;;;;;5044261;28;20053;-59
2023/10/27 03:09:56;;;;;;;1.90;1.80;;;;;;;;;;5046165;28;20064;-59
2023/10/27 03:12:24;;;;;;;2.00;1.90;;;;;;;;;;5046306;28;20048;-59
2023/10/27 03:14:52;;;;;;;2.83;2.30;;;;;;;;;;5042584;28;20509;-59
2023/10/27 03:17:21;;;;;;;2.00;1.90;;;;;;;;;;5043699;28;20128;-59
2023/10/27 03:19:51;;;;;;;2.35;2.10;;;;;;;;;;5043635;28;20494;-59
2023/10/27 03:22:20;;;;;;;2.10;2.00;;;;;;;;;;5045082;28;20528;-59
2023/10/27 03:24:50;;;;;;;2.08;1.98;;;;;;;;;;5042058;28;20469;-58
2023/10/27 03:27:18;;;;;;;2.38;2.15;;;;;;;;;;5045354;28;20049;-59
2023/10/27 03:29:46;;;;;;;1.90;1.80;;;;;;;;;;5044589;28;20139;-59
2023/10/27 03:32:15;;;;;;;1.90;1.80;;;;;;;;;;5043244;28;20065;-59
2023/10/27 03:34:45;;;;;;;2.13;2.00;;;;;;;;;;5040905;28;20107;-59
2023/10/27 03:37:14;;;;;;;2.00;1.90;;;;;;;;;;5042212;28;20136;-60
2023/10/27 03:39:43;;;;;;;2.22;2.08;;;;;;;;;;5045201;28;20447;-59
2023/10/27 03:42:15;;;;;;;2.10;2.00;;;;;;;;;;5044514;28;20041;-59
2023/10/27 03:44:44;;;;;;;2.63;2.28;;;;;;;;;;5042827;28;20111;-59
2023/10/27 03:47:12;;;;;;;2.10;2.00;;;;;;;;;;5044042;28;20214;-59
2023/10/27 03:49:41;;;;;;;2.38;2.22;;;;;;;;;;5044386;28;20080;-59
2023/10/27 03:52:09;;;;;;;2.67;2.50;;;;;;;;;;5045816;28;20510;-59
2023/10/27 03:54:38;;;;;;;2.35;2.15;;;;;;;;;;5043043;28;20059;-59
2023/10/27 03:57:06;;;;;;;3.47;2.47;;;;;;;;;;5044015;28;20045;-59
2023/10/27 03:59:36;;;;;;;2.42;2.33;;;;;;;;;;5043807;28;20072;-59
2023/10/27 04:02:07;;;;;;;2.42;2.00;;;;;;;;;;5040072;28;20054;-59
2023/10/27 04:04:35;;;;;;;2.25;2.15;;;;;;;;;;5043716;28;20592;-59
2023/10/27 04:07:04;;;;;;;2.35;2.25;;;;;;;;;;5045532;28;20053;-59
2023/10/27 04:09:32;;;;;;;2.20;2.10;;;;;;;;;;5041307;28;20088;-59
2023/10/27 04:12:00;;;;;;;2.17;2.08;;;;;;;;;;5044592;28;20134;-60
2023/10/27 04:14:29;;;;;;;1.88;1.77;;;;;;;;;;5038775;28;20072;-59
2023/10/27 04:16:59;;;;;;;2.00;1.90;;;;;;;;;;5041324;28;20077;-59
2023/10/27 04:19:27;;;;;;;2.35;2.15;;;;;;;;;;5044035;28;20041;-59
2023/10/27 04:21:56;;;;;;;2.47;2.28;;;;;;;;;;5041902;28;20059;-59
2023/10/27 04:24:25;;;;;;;2.10;2.00;;;;;;;;;;5042192;28;20048;-59
2023/10/27 04:26:53;;;;;;;1.90;1.80;;;;;;;;;;5040395;28;20064;-59
2023/10/27 04:29:22;;;;;;;2.78;1.98;;;;;;;;;;5044053;28;20095;-59
2023/10/27 04:31:50;;;;;;;2.40;2.20;;;;;;;;;;5040560;28;20099;-59
2023/10/27 04:34:20;;;;;;;2.50;1.92;;;;;;;;;;5039248;28;20117;-59
2023/10/27 04:36:49;;;;;;;2.05;1.95;;;;;;;;;;5042122;28;20090;-60
2023/10/27 04:39:17;;;;;;;2.42;2.25;;;;;;;;;;5037254;28;20045;-59
2023/10/27 04:41:45;;;;;;;2.00;1.90;;;;;;;;;;5043630;28;20064;-59
2023/10/27 04:44:14;;;;;;;2.25;2.15;;;;;;;;;;5041574;28;20580;-60
2023/10/27 04:46:42;;;;;;;2.83;2.03;;;;;;;;;;5041251;28;20048;-59
2023/10/27 04:49:11;;;;;;;2.30;2.00;;;;;;;;;;5038311;28;20053;-60
2023/10/27 04:51:41;;;;;;;1.77;1.67;;;;;;;;;;5043556;28;20047;-59
2023/10/27 04:54:10;;;;;;;2.17;1.98;;;;;;;;;;5042783;28;20049;-59
2023/10/27 04:56:38;;;;;;;2.00;1.90;;;;;;;;;;5043434;28;20053;-59
2023/10/27 04:59:06;;;;;;;2.50;2.35;;;;;;;;;;5042403;28;20470;-59
2023/10/27 05:01:35;;;;;;;2.13;1.80;;;;;;;;;;5038365;28;20106;-60
2023/10/27 05:04:05;;;;;;;2.10;2.00;;;;;;;;;;5039036;28;20048;-59
2023/10/27 05:06:33;;;;;;;1.98;1.88;;;;;;;;;;5041327;28;20135;-60
2023/10/27 05:09:03;;;;;;;2.05;1.95;;;;;;;;;;5039407;28;20052;-60
2023/10/27 05:11:32;;;;;;;2.00;1.90;;;;;;;;;;5042841;28;20120;-60
2023/10/27 05:14:00;;;;;;;1.92;1.83;;;;;;;;;;5040944;28;20118;-59
2023/10/27 05:16:28;;;;;;;1.92;1.83;;;;;;;;;;5034526;28;20095;-60
2023/10/27 05:18:57;;;;;;;2.05;1.95;;;;;;;;;;5042598;28;20041;-59
2023/10/27 05:21:26;;;;;;;2.13;2.03;;;;;;;;;;5041682;28;20053;-59
2023/10/27 05:23:56;;;;;;;2.40;2.20;;;;;;;;;;5043372;28;20099;-59
2023/10/27 05:26:26;;;;;;;2.15;2.05;;;;;;;;;;5040547;28;20876;-59
2023/10/27 05:28:55;;;;;;;1.95;1.85;;;;;;;;;;5041877;28;20091;-59
2023/10/27 05:31:27;;;;;;;2.10;2.00;;;;;;;;;;5042386;28;20095;-59
2023/10/27 05:33:56;;;;;;;1.90;1.80;;;;;;;;;;5040873;28;20053;-59
2023/10/27 05:36:24;;;;;;;2.40;2.20;;;;;;;;;;5035680;28;20132;-59
2023/10/27 05:38:53;;;;;;;2.20;2.10;;;;;;;;;;5041060;28;20053;-59
2023/10/27 05:41:21;;;;;;;2.20;2.10;;;;;;;;;;5042611;28;20110;-59
2023/10/27 05:43:51;;;;;;;2.30;2.10;;;;;;;;;;5041356;28;20122;-60
2023/10/27 05:46:20;;;;;;;2.88;2.67;;;;;;;;;;5036330;28;20049;-58
2023/10/27 05:48:49;;;;;;;1.90;1.80;;;;;;;;;;5042535;28;20414;-60
2023/10/27 05:51:18;;;;;;;2.10;2.00;;;;;;;;;;5044870;28;20053;-62
2023/10/27 05:53:46;;;;;;;2.60;2.40;;;;;;;;;;5047386;28;20037;-58
2023/10/27 05:56:15;;;;;;;2.28;2.17;;;;;;;;;;5047991;28;20099;-59
2023/10/27 05:58:43;;;;;;;2.10;2.00;;;;;;;;;;5043271;28;20042;-59
2023/10/27 06:01:13;;;;;;;1.90;1.80;;;;;;;;;;5044398;28;20074;-59
2023/10/27 06:03:41;;;;;;;2.25;2.08;;;;;;;;;;5042727;28;20045;-59
2023/10/27 06:06:10;;;;;;;2.03;1.92;;;;;;;;;;5045515;28;20055;-59
2023/10/27 06:08:42;;;;;;;4.28;2.00;;;;;;;;;;5046468;28;20563;-58
2023/10/27 06:11:10;;;;;;;2.03;1.92;;;;;;;;;;5044941;28;20115;-59
2023/10/27 06:13:39;;;;;;;2.08;1.88;;;;;;;;;;5045166;28;20391;-59
2023/10/27 06:16:08;;;;;;;3.08;2.30;;;;;;;;;;5036948;28;20716;-59
2023/10/27 06:18:38;;;;;;;2.22;2.03;;;;;;;;;;5044411;28;20053;-59
2023/10/27 06:21:07;;;;;;;2.15;2.05;;;;;;;;;;5044072;28;20072;-59
2023/10/27 06:23:35;;;;;;;1.80;1.70;;;;;;;;;;5045531;28;20048;-58
2023/10/27 06:26:04;;;;;;;1.70;1.60;;;;;;;;;;5046547;28;20049;-59
2023/10/27 06:28:34;;;;;;;2.08;1.98;;;;;;;;;;5045358;28;20494;-60
2023/10/27 06:31:03;;;;;;;5.55;1.88;;;;;;;;;;5044415;28;20366;-60
2023/10/27 06:33:33;;;;;;;1.92;1.83;;;;;;;;;;5046923;28;20094;-59
2023/10/27 06:36:03;;;;;;;1.80;1.70;;;;;;;;;;5045955;28;20041;-62
2023/10/27 06:38:31;;;;;;;1.90;1.80;;;;;;;;;;5047377;28;20048;-59
2023/10/27 06:41:00;;;;;;;2.08;1.98;;;;;;;;;;5043490;28;20045;-59
2023/10/27 06:43:28;;;;;;;1.90;1.80;;;;;;;;;;5047068;28;20048;-59
2023/10/27 06:45:57;;;;;;;2.45;1.90;;;;;;;;;;5043990;28;20045;-59
2023/10/27 06:48:25;;;;;;;1.70;1.60;;;;;;;;;;5044152;28;20057;-58
2023/10/27 06:50:54;;;;;;;1.88;1.77;;;;;;;;;;5044281;28;20041;-59
2023/10/27 06:53:23;;;;;;;1.80;1.70;;;;;;;;;;5045459;28;20153;-60
2023/10/27 06:55:52;;;;;;;1.85;1.75;;;;;;;;;;5046068;28;20571;-59
2023/10/27 06:58:20;;;;;;;1.90;1.80;;;;;;;;;;5042069;28;20478;-59
2023/10/27 07:00:49;;;;;;;1.80;1.70;;;;;;;;;;5045814;28;20146;-59
2023/10/27 07:03:17;;;;;;;3.53;2.22;;;;;;;;;;5041619;28;20402;-60
2023/10/27 07:05:59;;;;;;;2.40;2.20;;;;;;;;;;5040868;28;20072;-59
2023/10/27 07:08:30;;;;;;;2.00;1.90;;;;;;;;;;5043393;28;20132;-59
2023/10/27 07:10:59;;;;;;;1.90;1.80;;;;;;;;;;5046253;28;20147;-59
2023/10/27 07:13:28;;;;;;;2.30;1.83;;;;;;;;;;5042093;28;20508;-59
2023/10/27 07:15:56;;;;;;;1.98;1.88;;;;;;;;;;5044301;28;20447;-59
2023/10/27 07:18:25;;;;;;;1.85;1.75;;;;;;;;;;5044342;28;20699;-59
2023/10/27 07:20:53;;;;;;;1.70;1.60;;;;;;;;;;5045220;28;20052;-59
2023/10/27 07:23:22;;;;;;;1.70;1.60;;;;;;;;;;5045849;28;20049;-59
2023/10/27 07:25:52;;;;;;;1.98;1.88;;;;;;;;;;5045020;28;20059;-59
2023/10/27 07:28:21;;;;;;;1.80;1.70;;;;;;;;;;5045417;28;20049;-59
2023/10/27 07:30:49;;;;;;;1.90;1.80;;;;;;;;;;5042938;28;20053;-59
2023/10/27 07:33:18;;;;;;;1.88;1.77;;;;;;;;;;5045256;28;20462;-59
2023/10/27 07:35:47;;;;;;;2.17;1.98;;;;;;;;;;5042451;28;20471;-59
2023/10/27 07:38:16;;;;;;;2.10;2.00;;;;;;;;;;5041088;28;20052;-59
2023/10/27 07:40:44;;;;;;;1.80;1.70;;;;;;;;;;5043119;28;20584;-59
2023/10/27 07:43:14;;;;;;;2.28;2.17;;;;;;;;;;5043680;28;20045;-59
2023/10/27 07:45:46;;;;;;;2.28;2.08;;;;;;;;;;5041983;28;20045;-59
2023/10/27 07:48:14;;;;;;;1.75;1.65;;;;;;;;;;5041007;28;20081;-59
2023/10/27 07:50:43;;;;;;;2.08;1.92;;;;;;;;;;5044094;28;20056;-59
2023/10/27 07:53:11;;;;;;;2.42;1.83;;;;;;;;;;5040023;28;20442;-59
2023/10/27 07:55:40;;;;;;;2.30;1.70;;;;;;;;;;5044894;28;20041;-59
2023/10/27 07:58:08;;;;;;;1.80;1.70;;;;;;;;;;5041288;28;20045;-59
2023/10/27 08:00:38;;;;;;;1.80;1.70;;;;;;;;;;5042888;28;20048;-59
2023/10/27 08:03:07;;;;;;;1.90;1.80;;;;;;;;;;5045235;28;20093;-59
2023/10/27 08:05:35;;;;;;;1.77;1.67;;;;;;;;;;5042995;28;20041;-59
2023/10/27 08:08:04;;;;;;;4.75;2.70;;;;;;;;;;5043236;28;20060;-59
2023/10/27 08:10:51;;;;;;;3.00;2.63;;;;;;;;;;5039496;28;20515;-59
2023/10/27 08:13:27;;;;;;;2.30;2.20;;;;;;;;;;5043164;28;20048;-59
2023/10/27 08:15:57;;;;;;;1.80;1.70;;;;;;;;;;5043686;28;20041;-59
2023/10/27 08:18:26;;;;;;;2.00;1.90;;;;;;;;;;5043292;28;20041;-58
2023/10/27 08:20:54;;;;;;;1.80;1.70;;;;;;;;;;5042200;28;20540;-59
2023/10/27 08:23:23;;;;;;;1.98;1.85;;;;;;;;;;5044148;28;20041;-59
2023/10/27 08:25:52;;;;;;;1.83;1.73;;;;;;;;;;5042475;28;20037;-58
2023/10/27 08:28:23;;;;;;;1.50;1.50;;;;;;;;;;5041031;28;20053;-59
2023/10/27 08:30:51;;;;;;;1.90;1.80;;;;;;;;;;5041964;28;20045;-59
2023/10/27 08:33:21;;;;;;;1.63;1.60;;;;;;;;;;5043228;28;20398;-60
2023/10/27 08:35:50;;;;;;;1.52;1.52;;;;;;;;;;5038364;28;20046;-60
2023/10/27 08:38:18;;;;;;;1.50;1.50;;;;;;;;;;5044511;28;20107;-60
2023/10/27 08:40:47;;;;;;;1.40;1.40;;;;;;;;;;5039890;28;20126;-60
2023/10/27 08:43:15;;;;;;;1.70;1.60;;;;;;;;;;5043036;28;20114;-60
2023/10/27 08:45:44;;;;;;;1.38;1.38;;;;;;;;;;5041044;28;20055;-60
2023/10/27 08:48:12;;;;;;;1.30;1.30;;;;;;;;;;5041984;28;20044;-59
2023/10/27 08:50:43;;;;;;;1.70;1.60;;;;;;;;;;5039987;28;20053;-61
2023/10/27 08:53:12;;;;;;;1.65;1.55;;;;;;;;;;5045062;28;20052;-59
2023/10/27 08:55:54;;;;;;;1.60;1.50;;;;;;;;;;4996803;28;20569;-59
2023/10/27 08:58:23;;;;;;;1.50;1.50;;;;;;;;;;4998980;28;20089;-61
2023/10/27 09:00:51;;;;;;;1.80;1.70;;;;;;;;;;4999302;28;20116;-60
2023/10/27 09:03:20;;;;;;;1.52;1.52;;;;;;;;;;4996820;28;20820;-59
2023/10/27 09:05:50;;;;;;;1.88;1.80;;;;;;;;;;5000916;28;20053;-59
2023/10/27 09:08:18;;;;;;;1.50;1.40;;;;;;;;;;5001072;28;20054;-60
2023/10/27 09:10:47;;;;;;;1.60;1.60;;;;;;;;;;4998568;28;20101;-59
2023/10/27 09:13:21;;;;;;;1.40;1.40;;;;;;;;;;5000609;28;20049;-60
2023/10/27 09:15:51;;;;;;;1.75;1.65;;;;;;;;;;4999470;28;20049;-59
2023/10/27 09:18:35;;;;;;;1.58;1.58;;;;;;;;;;4995199;28;20137;-60
2023/10/27 09:21:06;;;;;;;1.40;1.40;;;;;;;;;;4995621;28;20050;-59
2023/10/27 09:23:45;;;;;;;1.42;1.42;;;;;;;;;;4998681;28;20057;-60
2023/10/27 09:26:13;;;;;;;1.40;1.40;;;;;;;;;;4998710;28;20045;-59
2023/10/27 09:28:42;;;;;;;1.70;1.60;;;;;;;;;;4997023;28;20057;-59
2023/10/27 09:31:11;;;;;;;1.50;1.50;;;;;;;;;;5003691;28;20038;-59
2023/10/27 09:33:39;;;;;;;1.40;1.40;;;;;;;;;;4997397;28;20165;-59
2023/10/27 09:36:10;;;;;;;1.50;1.50;;;;;;;;;;5002292;28;20100;-59
2023/10/27 09:38:39;;;;;;;1.50;1.50;;;;;;;;;;4999857;28;20085;-59
2023/10/27 09:41:08;;;;;;;1.40;1.40;;;;;;;;;;4997275;28;20045;-59
2023/10/27 09:43:39;;;;;;;1.50;1.50;;;;;;;;;;4998471;28;20062;-60
2023/10/27 09:46:08;;;;;;;1.40;1.40;;;;;;;;;;4997847;28;20046;-60
2023/10/27 09:48:38;;;;;;;1.55;1.55;;;;;;;;;;4999147;28;20050;-59
2023/10/27 09:51:10;;;;;;;1.40;1.40;;;;;;;;;;5001511;28;20139;-59
2023/10/27 09:53:47;;;;;;;1.45;1.45;;;;;;;;;;4997007;28;20050;-60
2023/10/27 09:56:17;;;;;;;1.80;1.70;;;;;;;;;;5001583;28;20042;-59
2023/10/27 09:58:51;;;;;;;1.50;1.50;;;;;;;;;;4999894;28;20060;-59
2023/10/27 10:01:20;;;;;;;1.40;1.40;;;;;;;;;;4999504;28;20046;-59
2023/10/27 10:03:49;;;;;;;1.50;1.40;;;;;;;;;;5001886;28;20173;-59
2023/10/27 10:06:18;;;;;;;1.55;1.42;;;;;;;;;;5001515;28;20108;-59
2023/10/27 10:09:05;;;;;;;1.30;1.30;;;;;;;;;;4998028;28;20042;-59
2023/10/27 10:11:55;;;;;;;1.35;1.35;;;;;;;;;;4997902;28;20049;-61
2023/10/27 10:14:43;;;;;;;1.40;1.40;;;;;;;;;;4997238;28;20042;-59
2023/10/27 10:17:13;;;;;;;1.40;1.40;;;;;;;;;;5002173;28;20060;-59
2023/10/27 10:19:50;;;;;;;1.40;1.40;;;;;;;;;;5000153;28;20121;-59
2023/10/27 10:22:34;;;;;;;1.40;1.40;;;;;;;;;;5000418;28;20050;-60
2023/10/27 10:25:21;;;;;;;1.40;1.40;;;;;;;;;;5001546;28;20134;-59
2023/10/27 10:28:04;;;;;;;1.50;1.50;;;;;;;;;;4991269;28;20054;-62
2023/10/27 10:30:34;;;;;;;1.30;1.30;;;;;;;;;;4999994;28;20041;-63
2023/10/27 10:33:16;;;;;;;1.40;1.40;;;;;;;;;;4999266;28;20253;-60
2023/10/27 10:35:46;;;;;;;1.70;1.60;;;;;;;;;;4988146;28;20056;-60
2023/10/27 10:38:37;;;;;;;1.30;1.30;;;;;;;;;;5015613;28;20049;-62
2023/10/27 10:41:06;;;;;;;1.55;1.45;;;;;;;;;;5046136;28;20060;-59
2023/10/27 10:43:36;;;;;;;1.40;1.40;;;;;;;;;;5046770;28;20049;-59
2023/10/27 10:46:06;;;;;;;1.40;1.40;;;;;;;;;;5046808;28;20049;-60
2023/10/27 10:48:36;;;;;;;1.35;1.35;;;;;;;;;;5044734;28;20052;-59
2023/10/27 10:51:11;;;;;;;1.80;1.70;;;;;;;;;;5045217;28;20041;-60
2023/10/27 10:53:40;;;;;;;1.40;1.40;;;;;;;;;;5047030;28;20059;-60
2023/10/27 10:56:30;;;;;;;1.60;1.50;;;;;;;;;;5043698;28;20057;-59
2023/10/27 10:59:03;;;;;;;1.42;1.42;;;;;;;;;;5040084;28;20815;-59
2023/10/27 11:01:33;;;;;;;1.40;1.40;;;;;;;;;;5044421;28;20049;-60
2023/10/27 11:04:02;;;;;;;1.42;1.42;;;;;;;;;;5041226;28;20094;-59
2023/10/27 11:06:30;;;;;;;1.50;1.40;;;;;;;;;;5043886;28;20056;-61
2023/10/27 11:08:59;;;;;;;1.40;1.40;;;;;;;;;;5039406;28;20053;-59
2023/10/27 11:11:28;;;;;;;1.67;1.58;;;;;;;;;;5046109;28;20045;-60
2023/10/27 11:14:14;;;;;;;1.50;1.42;;;;;;;;;;5045887;28;20136;-60
2023/10/27 11:16:44;;;;;;;1.70;1.60;;;;;;;;;;5042548;28;20049;-59
2023/10/27 11:19:16;;;;;;;2.35;2.25;;;;;;;;;;5045989;28;20120;-59
2023/10/27 11:21:44;;;;;;;2.00;1.90;;;;;;;;;;5041884;28;20041;-59
2023/10/27 11:24:13;;;;;;;1.80;1.70;;;;;;;;;;5043182;28;20045;-60
2023/10/27 11:26:43;;;;;;;1.30;1.30;;;;;;;;;;5044827;28;20049;-60
2023/10/27 11:29:11;;;;;;;1.88;1.48;;;;;;;;;;5043804;28;20457;-60
2023/10/27 11:31:47;;;;;;;1.50;1.50;;;;;;;;;;5045600;28;20053;-59
2023/10/27 11:34:21;;;;;;;1.40;1.40;;;;;;;;;;5044660;28;20053;-61
2023/10/27 11:37:00;;;;;;;1.50;1.50;;;;;;;;;;5043538;28;20052;-60
2023/10/27 11:39:29;;;;;;;1.70;1.60;;;;;;;;;;5043932;28;20067;-60
2023/10/27 11:41:59;;;;;;;1.63;1.58;;;;;;;;;;5042352;28;20053;-59
2023/10/27 11:44:30;;;;;;;1.60;1.60;;;;;;;;;;5043053;28;20051;-59
2023/10/27 11:47:00;;;;;;;1.73;1.63;;;;;;;;;;5042766;28;20064;-58
2023/10/27 11:49:30;;;;;;;7.38;2.78;;;;;;;;;;5045020;28;20041;-59
2023/10/27 11:51:59;;;;;;;1.70;1.60;;;;;;;;;;5038030;28;20071;-58
2023/10/27 11:54:28;;;;;;;1.80;1.60;;;;;;;;;;5045036;28;20048;-60
2023/10/27 11:56:56;;;;;;;1.85;1.80;;;;;;;;;;5044794;28;20118;-60
2023/10/27 11:59:25;;;;;;;1.83;1.73;;;;;;;;;;5041865;28;20126;-60
2023/10/27 12:01:54;;;;;;;1.90;1.80;;;;;;;;;;5043850;28;20525;-59
2023/10/27 12:04:25;;;;;;;1.90;1.80;;;;;;;;;;5045180;28;20049;-58
2023/10/27 12:06:55;;;;;;;1.73;1.70;;;;;;;;;;5045653;28;20047;-59
2023/10/27 12:09:23;;;;;;;2.03;1.92;;;;;;;;;;5038071;28;20122;-59
2023/10/27 12:11:52;;;;;;;2.10;1.90;;;;;;;;;;5040373;28;20060;-60
2023/10/27 12:14:20;;;;;;;1.70;1.70;;;;;;;;;;5044721;28;20494;-59
2023/10/27 12:16:58;;;;;;;1.50;1.50;;;;;;;;;;5043780;28;20053;-60
2023/10/27 12:19:28;;;;;;;1.52;1.50;;;;;;;;;;5042716;28;20053;-61
2023/10/27 12:21:59;;;;;;;1.45;1.45;;;;;;;;;;5043478;28;20091;-60
2023/10/27 12:24:31;;;;;;;1.50;1.40;;;;;;;;;;5043964;28;20080;-59
2023/10/27 12:27:01;;;;;;;1.50;1.50;;;;;;;;;;5042883;28;20045;-60
2023/10/27 12:29:29;;;;;;;1.60;1.50;;;;;;;;;;5040873;28;20045;-59
2023/10/27 12:31:59;;;;;;;1.50;1.40;;;;;;;;;;5044117;28;20053;-59
2023/10/27 12:34:30;;;;;;;1.70;1.60;;;;;;;;;;5044997;28;20040;-59
2023/10/27 12:36:59;;;;;;;1.60;1.60;;;;;;;;;;5044203;28;20045;-61
2023/10/27 12:39:27;;;;;;;1.75;1.65;;;;;;;;;;5041060;28;20367;-60
2023/10/27 12:41:56;;;;;;;1.80;1.70;;;;;;;;;;5043811;28;20061;-62
2023/10/27 12:44:26;;;;;;;1.60;1.50;;;;;;;;;;5044460;28;20044;-61
2023/10/27 12:46:55;;;;;;;1.65;1.55;;;;;;;;;;5042354;28;20068;-59
2023/10/27 12:49:23;;;;;;;1.40;1.40;;;;;;;;;;5044183;28;20041;-59
2023/10/27 12:51:57;;;;;;;1.63;1.52;;;;;;;;;;5044809;28;20470;-61
2023/10/27 12:54:25;;;;;;;1.63;1.52;;;;;;;;;;5040579;28;20044;-61
2023/10/27 12:56:53;;;;;;;1.80;1.65;;;;;;;;;;5041761;28;20088;-60
2023/10/27 12:59:22;;;;;;;2.47;1.60;;;;;;;;;;5044409;28;20041;-60
2023/10/27 13:01:50;;;;;;;1.50;1.40;;;;;;;;;;5040055;28;20057;-59
2023/10/27 13:04:19;;;;;;;1.60;1.50;;;;;;;;;;5037718;28;20049;-61
2023/10/27 13:06:47;;;;;;;1.38;1.38;;;;;;;;;;5039835;28;20037;-60
2023/10/27 13:09:17;;;;;;;1.40;1.40;;;;;;;;;;5034353;28;20539;-60
2023/10/27 13:11:46;;;;;;;1.38;1.38;;;;;;;;;;5043377;28;20049;-61
2023/10/27 13:14:14;;;;;;;1.67;1.40;;;;;;;;;;5040263;28;20486;-59
2023/10/27 13:16:42;;;;;;;1.30;1.30;;;;;;;;;;5040599;28;20045;-60
2023/10/27 13:19:11;;;;;;;1.40;1.40;;;;;;;;;;5042486;28;20510;-59
2023/10/27 13:21:39;;;;;;;1.33;1.30;;;;;;;;;;5040178;28;20478;-59
2023/10/27 13:24:08;;;;;;;1.70;1.60;;;;;;;;;;5040279;28;20056;-61
2023/10/27 13:26:38;;;;;;;1.50;1.40;;;;;;;;;;5037414;28;20167;-59
2023/10/27 13:29:07;;;;;;;1.35;1.35;;;;;;;;;;5038203;28;20040;-59
2023/10/27 13:31:37;;;;;;;1.63;1.55;;;;;;;;;;5039855;28;20052;-60
2023/10/27 13:34:05;;;;;;;1.58;1.48;;;;;;;;;;5038994;28;20203;-59
2023/10/27 13:36:34;;;;;;;2.05;1.40;;;;;;;;;;5041644;28;20071;-59
2023/10/27 13:39:02;;;;;;;1.30;1.30;;;;;;;;;;5041871;28;20538;-60
2023/10/27 13:41:35;;;;;;;1.40;1.30;;;;;;;;;;5040819;28;20124;-60
2023/10/27 13:44:05;;;;;;;1.30;1.30;;;;;;;;;;5039366;28;20048;-59
2023/10/27 13:46:35;;;;;;;1.20;1.20;;;;;;;;;;5041246;28;20048;-58
2023/10/27 13:49:09;;;;;;;1.40;1.30;;;;;;;;;;5041551;28;20458;-59
2023/10/27 13:51:41;;;;;;;;;;;;;;;;;;5043544;28;20127;-59
2023/10/27 13:54:10;;;;;;;1.40;1.40;;;;;;;;;;5041828;28;20415;-59
2023/10/27 13:56:39;;;;;;;1.40;1.30;;;;;;;;;;5041941;28;20069;-59
2023/10/27 13:59:10;;;;;;;1.20;1.20;;;;;;;;;;5040213;28;20048;-59
2023/10/27 14:01:38;;;;;;;1.50;1.40;;;;;;;;;;5039272;28;20544;-59
2023/10/27 14:04:07;;;;;;;1.40;1.30;;;;;;;;;;5039509;28;20052;-60
2023/10/27 14:06:38;;;;;;;1.30;1.30;;;;;;;;;;5038982;28;20329;-60
2023/10/27 14:09:08;;;;;;;1.30;1.30;;;;;;;;;;5040895;28;20552;-60
2023/10/27 14:11:38;;;;;;;1.35;1.30;;;;;;;;;;5043299;28;20056;-59
2023/10/27 14:14:06;;;;;;;1.60;1.50;;;;;;;;;;5046609;28;20493;-60
2023/10/27 14:16:36;;;;;;;1.50;1.40;;;;;;;;;;5044596;28;20041;-61
2023/10/27 14:19:05;;;;;;;1.60;1.50;;;;;;;;;;5044486;28;20444;-59
2023/10/27 14:21:38;;;;;;;1.40;1.40;;;;;;;;;;5044719;28;20505;-59
2023/10/27 14:24:07;;;;;;;1.83;1.50;;;;;;;;;;5046229;28;20057;-60
2023/10/27 14:26:36;;;;;;;1.55;1.52;;;;;;;;;;5045710;28;20076;-59
2023/10/27 14:29:06;;;;;;;1.58;1.45;;;;;;;;;;5045596;28;20098;-61
2023/10/27 14:31:36;;;;;;;1.40;1.40;;;;;;;;;;5043484;28;20049;-59
2023/10/27 14:34:09;;;;;;;1.25;1.25;;;;;;;;;;5046425;28;20041;-59
2023/10/27 14:39:29;;;;;;;1.40;1.40;;;;;;;;;;5045165;28;20040;-59
2023/10/27 14:41:57;;;;;;;1.48;1.45;;;;;;;;;;5043164;28;20056;-60
2023/10/27 14:44:26;;;;;;;1.70;1.60;;;;;;;;;;5044685;28;20489;-59
2023/10/27 14:46:57;;;;;;;1.58;1.48;;;;;;;;;;5042340;28;20041;-60
2023/10/27 14:49:25;;;;;;;1.55;1.55;;;;;;;;;;5044791;28;20490;-59
2023/10/27 14:51:55;;;;;;;1.60;1.50;;;;;;;;;;5043979;28;20103;-60
2023/10/27 14:54:24;;;;;;;1.70;1.70;;;;;;;;;;5046163;28;20053;-59
2023/10/27 14:56:52;;;;;;;1.75;1.65;;;;;;;;;;5044140;28;20060;-59
2023/10/27 14:59:21;;;;;;;1.60;1.58;;;;;;;;;;5042917;28;20056;-59
2023/10/27 15:01:49;;;;;;;1.80;1.70;;;;;;;;;;5040452;28;20106;-59